Time;durP1;ratioP1;P1;durP2;ratioP2;P2;SDS_P1;SDS_P2;PMS_P1;PMS_P2;Temp;Humidity;BMP_temperature;BMP_pressure;BME280_temperature;BME280_humidity;BME280_pressure;Samples;Min_cycle;Max_cycle;Signal;HPM_P1;HPM_P2
2022/06/28 00:01:45;;;;;;;25.98;18.73;;;13.20;99.90;;;;;;4967283;28;20045;-85
2022/06/28 00:04:11;;;;;;;27.35;18.50;;;13.20;99.90;;;;;;4950817;28;20066;-85
2022/06/28 00:06:37;;;;;;;25.63;17.48;;;13.20;99.90;;;;;;4951972;28;20042;-85
2022/06/28 00:09:04;;;;;;;22.27;16.55;;;13.20;99.90;;;;;;4951959;28;20039;-85
2022/06/28 00:11:33;;;;;;;26.05;18.65;;;13.10;99.90;;;;;;4952956;28;20201;-85
2022/06/28 00:13:58;;;;;;;23.08;17.38;;;13.20;99.90;;;;;;4951054;28;20371;-84
2022/06/28 00:17:17;;;;;;;44.17;22.23;;;13.10;99.90;;;;;;4945536;28;20479;-84
2022/06/28 00:19:43;;;;;;;21.77;17.00;;;13.10;99.90;;;;;;4963298;28;20133;-86
2022/06/28 00:22:08;;;;;;;20.55;16.15;;;13.10;99.90;;;;;;4963065;28;20082;-84
2022/06/28 00:24:34;;;;;;;24.45;16.63;;;13.10;99.90;;;;;;4964983;28;20141;-85
2022/06/28 00:27:00;;;;;;;23.25;17.13;;;13.00;99.90;;;;;;4965816;28;20035;-85
2022/06/28 00:29:26;;;;;;;17.85;15.23;;;13.00;99.90;;;;;;4966178;28;20090;-85
2022/06/28 00:31:52;;;;;;;23.13;15.68;;;13.00;99.90;;;;;;4961131;28;20390;-85
2022/06/28 00:34:18;;;;;;;20.02;16.17;;;12.90;99.90;;;;;;4947569;28;20067;-85
2022/06/28 00:36:43;;;;;;;20.63;15.45;;;12.90;99.90;;;;;;4966228;28;20138;-84
2022/06/28 00:39:09;;;;;;;21.25;15.18;;;12.90;99.90;;;;;;4948258;28;20599;-85
2022/06/28 00:41:35;;;;;;;22.27;15.68;;;12.90;99.90;;;;;;4950256;28;20034;-85
2022/06/28 00:44:05;;;;;;;18.88;15.50;;;12.80;99.90;;;;;;4946807;28;20174;-85
2022/06/28 00:46:33;;;;;;;24.92;15.88;;;12.90;99.90;;;;;;4960564;28;20035;-84
2022/06/28 00:49:01;;;;;;;26.55;16.88;;;12.90;99.90;;;;;;4948352;28;20514;-85
2022/06/28 00:51:29;;;;;;;21.75;16.33;;;12.90;99.90;;;;;;4945127;28;20070;-85
2022/06/28 00:53:55;;;;;;;22.17;16.35;;;12.90;99.90;;;;;;4951227;28;20415;-85
2022/06/28 00:56:21;;;;;;;21.35;15.55;;;12.90;99.90;;;;;;4946572;28;20057;-85
2022/06/28 00:58:47;;;;;;;21.25;16.33;;;12.80;99.90;;;;;;4960957;28;20042;-85
2022/06/28 01:01:13;;;;;;;31.77;15.85;;;12.80;99.90;;;;;;4966982;28;20121;-84
2022/06/28 01:03:39;;;;;;;20.33;16.13;;;12.80;99.90;;;;;;4966662;28;20399;-84
2022/06/28 01:06:05;;;;;;;22.27;15.95;;;12.90;99.90;;;;;;4965152;28;20035;-85
2022/06/28 01:08:31;;;;;;;19.13;15.25;;;12.90;99.90;;;;;;4943926;28;20070;-85
2022/06/28 01:10:56;;;;;;;23.00;16.70;;;12.80;99.90;;;;;;4948865;28;20038;-85
2022/06/28 01:13:22;;;;;;;24.25;14.75;;;12.80;99.90;;;;;;4964013;28;20039;-85
2022/06/28 01:15:48;;;;;;;25.65;17.33;;;12.80;99.90;;;;;;4941985;28;20070;-85
2022/06/28 01:18:14;;;;;;;22.27;15.43;;;12.80;99.90;;;;;;4945555;28;20050;-85
2022/06/28 01:20:44;;;;;;;22.20;15.63;;;12.80;99.90;;;;;;4950375;28;20117;-85
2022/06/28 01:23:28;;;;;;;22.27;16.40;;;12.80;99.90;;;;;;4964939;28;20047;-85
2022/06/28 01:25:54;;;;;;;23.77;16.50;;;12.80;99.90;;;;;;4945933;28;20038;-85
2022/06/28 01:28:21;;;;;;;19.23;15.13;;;12.80;99.90;;;;;;4964297;28;20050;-85
2022/06/28 01:30:47;;;;;;;20.85;16.08;;;12.80;99.90;;;;;;4966547;28;20046;-84
2022/06/28 01:33:13;;;;;;;22.00;16.00;;;12.70;99.90;;;;;;4946785;28;20043;-85
2022/06/28 01:35:39;;;;;;;22.05;15.02;;;12.70;99.90;;;;;;4949028;28;20034;-85
2022/06/28 01:38:06;;;;;;;20.27;15.77;;;12.80;99.90;;;;;;4949749;28;20046;-85
2022/06/28 01:40:35;;;;;;;22.95;15.85;;;12.80;99.90;;;;;;4946641;28;21145;-85
2022/06/28 01:43:01;;;;;;;24.10;15.95;;;12.70;99.90;;;;;;4948525;28;20137;-85
2022/06/28 01:45:29;;;;;;;23.23;16.35;;;12.70;99.90;;;;;;4951209;28;20042;-85
2022/06/28 01:47:55;;;;;;;21.30;15.30;;;12.70;99.90;;;;;;4961641;28;20043;-85
2022/06/28 01:50:21;;;;;;;22.23;16.35;;;12.60;99.90;;;;;;4964474;28;20035;-85
2022/06/28 01:52:46;;;;;;;21.58;16.10;;;12.60;99.90;;;;;;4947810;28;20101;-85
2022/06/28 01:55:12;;;;;;;18.52;15.15;;;12.70;99.90;;;;;;4941027;28;20329;-85
2022/06/28 01:58:04;;;;;;;19.58;15.30;;;12.60;99.90;;;;;;4964738;28;20038;-85
2022/06/28 02:00:29;;;;;;;17.65;14.32;;;12.70;99.90;;;;;;4961766;28;20043;-85
2022/06/28 02:02:59;;;;;;;22.85;15.93;;;12.60;99.90;;;;;;4948769;28;20039;-84
2022/06/28 02:05:25;;;;;;;19.00;14.05;;;12.60;99.90;;;;;;4963586;28;20043;-85
2022/06/28 02:07:51;;;;;;;22.42;16.25;;;12.70;99.90;;;;;;4948699;28;20042;-85
2022/06/28 02:10:18;;;;;;;19.52;15.57;;;12.60;99.90;;;;;;4947007;28;20078;-85
2022/06/28 02:12:45;;;;;;;24.00;16.67;;;12.60;99.90;;;;;;4949820;28;20473;-85
2022/06/28 02:15:14;;;;;;;21.75;14.77;;;12.60;99.90;;;;;;4948669;28;20133;-85
2022/06/28 02:17:41;;;;;;;21.33;14.93;;;12.60;99.90;;;;;;4946798;28;20046;-86
2022/06/28 02:20:07;;;;;;;19.75;15.68;;;12.70;99.90;;;;;;4948038;28;20142;-85
2022/06/28 02:22:33;;;;;;;23.23;15.93;;;12.60;99.90;;;;;;4947597;28;20518;-85
2022/06/28 02:24:59;;;;;;;21.45;15.10;;;12.60;99.90;;;;;;4947508;28;20038;-85
2022/06/28 02:27:25;;;;;;;19.67;14.63;;;12.60;99.90;;;;;;4960905;28;20722;-84
2022/06/28 02:29:51;;;;;;;16.88;14.48;;;12.60;99.90;;;;;;4945237;28;20043;-85
2022/06/28 02:32:17;;;;;;;18.73;14.90;;;12.50;99.90;;;;;;4948272;28;20510;-85
2022/06/28 02:40:27;;;;;;;20.23;15.20;;;12.40;99.90;;;;;;4959397;28;20046;-85
2022/06/28 02:42:57;;;;;;;21.33;15.35;;;12.40;99.90;;;;;;4946752;28;20447;-85
2022/06/28 02:45:26;;;;;;;19.65;14.70;;;12.40;99.90;;;;;;4961154;28;20082;-85
2022/06/28 02:47:52;;;;;;;21.13;16.02;;;12.40;99.90;;;;;;4946267;28;20141;-85
2022/06/28 02:50:18;;;;;;;26.85;16.98;;;12.30;99.90;;;;;;4964678;28;20451;-85
2022/06/28 02:52:44;;;;;;;19.17;15.35;;;12.40;99.90;;;;;;4947828;28;20141;-85
2022/06/28 02:55:10;;;;;;;22.00;16.52;;;12.30;99.90;;;;;;4957687;28;20059;-86
2022/06/28 02:57:39;;;;;;;20.20;15.68;;;12.30;99.90;;;;;;4945605;28;20054;-85
2022/06/28 03:00:08;;;;;;;20.10;14.63;;;12.30;99.90;;;;;;4964858;28;20450;-86
2022/06/28 03:02:39;;;;;;;21.52;16.02;;;12.20;99.90;;;;;;4947718;28;20039;-85
2022/06/28 03:05:07;;;;;;;23.35;15.55;;;12.30;99.90;;;;;;4947052;28;20923;-85
2022/06/28 03:07:32;;;;;;;20.08;14.85;;;12.30;99.90;;;;;;4947185;28;20042;-85
2022/06/28 03:09:59;;;;;;;19.80;15.70;;;12.30;99.90;;;;;;4944196;29;20039;-86
2022/06/28 03:12:25;;;;;;;21.27;15.98;;;12.30;99.90;;;;;;4947430;28;20481;-85
2022/06/28 03:14:51;;;;;;;20.90;15.57;;;12.30;99.90;;;;;;4947391;28;20039;-85
2022/06/28 03:17:17;;;;;;;26.27;16.02;;;12.20;99.90;;;;;;4961205;28;20046;-86
2022/06/28 03:19:42;;;;;;;22.20;15.85;;;12.20;99.90;;;;;;4961277;28;20255;-85
2022/06/28 03:22:11;;;;;;;22.65;15.98;;;12.30;99.90;;;;;;4962199;28;20486;-85
2022/06/28 03:24:37;;;;;;;24.13;16.98;;;12.30;99.90;;;;;;4945962;28;20499;-85
2022/06/28 03:27:03;;;;;;;20.70;15.50;;;12.30;99.90;;;;;;4962811;28;20126;-85
2022/06/28 03:29:29;;;;;;;20.52;15.60;;;12.30;99.90;;;;;;4959844;28;20533;-86
2022/06/28 03:31:55;;;;;;;20.67;14.27;;;12.30;99.90;;;;;;4962428;28;20027;-85
2022/06/28 03:34:20;;;;;;;24.65;15.90;;;12.30;99.90;;;;;;4944905;28;20043;-85
2022/06/28 03:36:46;;;;;;;23.88;16.35;;;12.30;99.90;;;;;;4945133;28;20035;-85
2022/06/28 03:39:15;;;;;;;18.85;15.15;;;12.30;99.90;;;;;;4962428;28;20490;-84
2022/06/28 03:41:41;;;;;;;21.73;14.85;;;12.40;99.90;;;;;;4946744;28;20139;-85
2022/06/28 03:44:06;;;;;;;19.60;13.98;;;12.30;99.90;;;;;;4945055;28;20066;-84
2022/06/28 03:46:32;;;;;;;24.55;14.23;;;12.30;99.90;;;;;;4939468;28;20041;-86
2022/06/28 03:48:58;;;;;;;18.52;14.23;;;12.30;99.90;;;;;;4961492;28;20129;-85
2022/06/28 03:51:23;;;;;;;26.77;15.82;;;12.30;99.90;;;;;;4947674;28;20087;-84
2022/06/28 03:53:49;;;;;;;22.58;14.55;;;12.40;99.90;;;;;;4945344;28;20070;-85
2022/06/28 03:56:15;;;;;;;22.17;15.90;;;12.40;99.90;;;;;;4959596;28;20061;-85
2022/06/28 03:58:44;;;;;;;17.80;13.82;;;12.40;99.90;;;;;;4946368;28;20193;-85
2022/06/28 04:01:13;;;;;;;19.27;13.68;;;12.50;99.90;;;;;;4941631;28;20554;-85
2022/06/28 04:03:56;;;;;;;22.63;14.30;;;12.50;99.90;;;;;;4944023;28;20038;-85
2022/06/28 04:06:31;;;;;;;18.85;14.25;;;12.60;99.90;;;;;;4943889;28;20109;-86
2022/06/28 04:08:57;;;;;;;22.13;15.02;;;12.60;99.90;;;;;;4962033;28;20074;-85
2022/06/28 04:11:22;;;;;;;17.45;13.70;;;12.60;99.90;;;;;;4941700;28;20089;-86
2022/06/28 04:13:53;;;;;;;18.75;13.18;;;12.70;99.90;;;;;;4960326;28;20046;-85
2022/06/28 04:16:20;;;;;;;20.10;13.60;;;12.70;99.90;;;;;;4958295;28;20084;-85
2022/06/28 04:18:46;;;;;;;17.98;12.98;;;12.80;99.90;;;;;;4959535;28;20055;-85
2022/06/28 04:21:17;;;;;;;17.58;13.32;;;12.80;99.90;;;;;;4943944;28;20098;-85
2022/06/28 04:23:46;;;;;;;18.50;13.73;;;12.90;99.90;;;;;;4962723;28;20100;-85
2022/06/28 04:26:13;;;;;;;17.63;12.73;;;13.00;99.90;;;;;;4960245;28;20105;-85
2022/06/28 04:28:39;;;;;;;22.10;14.50;;;13.00;99.90;;;;;;4944217;28;20053;-85
2022/06/28 04:31:05;;;;;;;16.23;12.43;;;13.20;99.90;;;;;;4946462;28;20034;-84
2022/06/28 04:33:31;;;;;;;15.90;13.02;;;13.10;99.90;;;;;;4944330;28;20491;-85
2022/06/28 04:35:57;;;;;;;18.50;12.27;;;13.20;99.90;;;;;;4942506;28;20088;-85
2022/06/28 04:38:23;;;;;;;16.52;13.68;;;13.40;99.90;;;;;;4944732;28;20130;-85
2022/06/28 04:40:49;;;;;;;15.05;12.38;;;13.40;99.90;;;;;;4940402;28;20103;-85
2022/06/28 04:43:14;;;;;;;20.05;12.15;;;13.40;99.90;;;;;;4943631;28;20067;-85
2022/06/28 04:45:40;;;;;;;15.20;11.80;;;13.50;99.90;;;;;;4943093;28;20041;-85
2022/06/28 04:48:06;;;;;;;18.23;11.93;;;13.60;99.90;;;;;;4944931;28;20526;-84
2022/06/28 04:50:32;;;;;;;17.63;10.63;;;13.60;99.90;;;;;;4943010;28;20527;-85
2022/06/28 04:52:58;;;;;;;16.15;11.52;;;13.70;99.90;;;;;;4944007;28;20414;-85
2022/06/28 04:55:24;;;;;;;16.08;11.48;;;13.70;99.90;;;;;;4935276;28;20062;-85
2022/06/28 04:57:50;;;;;;;12.73;10.65;;;13.80;99.90;;;;;;4957906;28;20402;-85
2022/06/28 05:00:19;;;;;;;13.60;10.82;;;13.80;99.90;;;;;;4935771;28;20137;-85
2022/06/28 05:02:44;;;;;;;13.60;10.60;;;13.90;99.90;;;;;;4942325;28;20035;-85
2022/06/28 05:05:10;;;;;;;17.05;10.75;;;14.00;99.90;;;;;;4958458;28;20089;-85
2022/06/28 05:07:37;;;;;;;13.95;9.82;;;14.10;99.90;;;;;;4943037;28;20336;-85
2022/06/28 05:10:04;;;;;;;16.70;10.23;;;14.10;99.90;;;;;;4943362;28;20350;-85
2022/06/28 05:12:29;;;;;;;12.32;9.68;;;14.20;99.90;;;;;;4940321;28;20061;-85
2022/06/28 05:14:55;;;;;;;14.82;10.60;;;14.20;99.90;;;;;;4959872;28;20039;-85
2022/06/28 05:17:21;;;;;;;12.60;9.52;;;14.30;99.90;;;;;;4941624;28;20090;-85
2022/06/28 05:19:48;;;;;;;15.60;9.50;;;14.40;99.90;;;;;;4942481;28;20039;-85
2022/06/28 05:22:14;;;;;;;14.07;9.55;;;14.50;99.90;;;;;;4958527;28;20402;-85
2022/06/28 05:24:40;;;;;;;16.42;9.38;;;14.60;99.90;;;;;;4957901;28;20121;-85
2022/06/28 05:27:08;;;;;;;11.90;8.95;;;14.60;99.90;;;;;;4941912;28;20126;-85
2022/06/28 05:29:34;;;;;;;10.38;7.97;;;14.70;99.90;;;;;;4943336;28;20034;-85
2022/06/28 05:32:00;;;;;;;12.32;9.40;;;14.80;95.30;;;;;;4952322;28;20471;-85
2022/06/28 05:34:26;;;;;;;12.32;8.75;;;14.90;67.20;;;;;;4949018;28;20039;-85
2022/06/28 05:36:52;;;;;;;12.18;9.05;;;14.90;36.80;;;;;;4964753;28;20114;-85
2022/06/28 05:39:17;;;;;;;13.32;9.02;;;14.90;41.90;;;;;;4947460;28;20061;-85
2022/06/28 05:41:43;;;;;;;9.88;7.93;;;15.00;31.80;;;;;;4962710;28;20035;-85
2022/06/28 05:44:11;;;;;;;11.60;8.25;;;15.10;1.00;;;;;;4961920;28;20113;-85
2022/06/28 05:46:39;;;;;;;12.80;9.07;;;15.20;1.00;;;;;;4948404;28;20039;-85
2022/06/28 05:49:08;;;;;;;13.30;7.97;;;15.30;1.00;;;;;;4947109;28;20074;-84
2022/06/28 05:51:34;;;;;;;13.18;8.68;;;15.20;1.00;;;;;;4945810;28;20069;-85
2022/06/28 05:54:01;;;;;;;12.45;8.18;;;15.30;1.00;;;;;;4946829;28;20090;-84
2022/06/28 05:56:27;;;;;;;13.60;8.05;;;15.40;1.00;;;;;;4934793;28;20052;-84
2022/06/28 05:58:53;;;;;;;12.57;7.32;;;15.50;1.00;;;;;;4946097;28;20046;-84
2022/06/28 06:01:20;;;;;;;10.48;7.32;;;15.60;1.00;;;;;;4946228;28;20053;-85
2022/06/28 06:03:46;;;;;;;12.18;7.30;;;15.70;1.00;;;;;;4960974;28;20058;-85
2022/06/28 06:06:11;;;;;;;10.15;6.82;;;15.70;1.00;;;;;;4964756;28;20562;-85
2022/06/28 06:08:37;;;;;;;11.88;7.30;;;15.60;1.00;;;;;;4946356;28;20051;-85
2022/06/28 06:11:03;;;;;;;10.48;6.60;;;15.80;1.00;;;;;;4961639;28;20147;-85
2022/06/28 06:13:29;;;;;;;12.02;6.70;;;15.80;1.00;;;;;;4940647;28;20127;-85
2022/06/28 06:15:54;;;;;;;9.60;6.95;;;15.70;1.00;;;;;;4941182;29;20118;-85
2022/06/28 06:18:20;;;;;;;10.40;6.60;;;15.60;1.00;;;;;;4940662;28;20035;-85
2022/06/28 06:20:46;;;;;;;15.43;6.97;;;15.60;1.00;;;;;;4961331;28;20026;-85
2022/06/28 06:23:14;;;;;;;12.25;6.88;;;15.80;1.00;;;;;;4946384;28;20396;-84
2022/06/28 06:25:40;;;;;;;10.95;6.13;;;16.00;1.00;;;;;;4957083;28;20451;-85
2022/06/28 06:28:06;;;;;;;11.55;6.22;;;16.00;1.00;;;;;;4945268;28;20054;-85
2022/06/28 06:30:32;;;;;;;11.45;6.78;;;16.10;1.00;;;;;;4942682;28;20047;-85
2022/06/28 06:32:58;;;;;;;28.98;6.45;;;16.20;1.00;;;;;;4944278;28;20074;-84
2022/06/28 06:35:24;;;;;;;7.28;5.50;;;16.40;1.00;;;;;;4946954;28;20205;-85
2022/06/28 06:37:49;;;;;;;13.27;5.45;;;16.30;1.00;;;;;;4946030;28;20034;-84
2022/06/28 06:40:16;;;;;;;10.57;6.00;;;16.50;99.90;;;;;;4944784;29;20604;-85
2022/06/28 06:42:42;;;;;;;9.40;5.45;;;16.50;99.90;;;;;;4944198;28;20248;-85
2022/06/28 06:45:08;;;;;;;12.60;5.57;;;16.50;99.90;;;;;;4947174;28;20482;-84
2022/06/28 06:47:36;;;;;;;12.55;5.68;;;16.60;99.90;;;;;;4961165;28;20053;-85
2022/06/28 06:50:08;;;;;;;9.40;5.43;;;16.70;99.90;;;;;;4962292;28;20726;-85
2022/06/28 06:52:34;;;;;;;10.90;5.60;;;16.90;99.90;;;;;;4947488;28;20105;-84
2022/06/28 06:55:01;;;;;;;8.55;5.43;;;16.90;99.90;;;;;;4947158;28;20058;-84
2022/06/28 06:57:26;;;;;;;11.30;6.05;;;17.00;99.90;;;;;;4961579;28;20137;-84
2022/06/28 06:59:52;;;;;;;10.70;5.70;;;17.10;99.90;;;;;;4947876;28;20097;-84
2022/06/28 07:02:28;;;;;;;10.43;5.50;;;17.20;99.90;;;;;;4947576;28;20035;-84
2022/06/28 07:04:53;;;;;;;11.30;5.40;;;17.30;99.90;;;;;;4964097;28;20518;-85
2022/06/28 07:07:19;;;;;;;10.52;4.82;;;17.30;99.90;;;;;;4947091;28;20090;-84
2022/06/28 07:09:45;;;;;;;11.57;4.95;;;17.40;99.90;;;;;;4962826;28;20034;-84
2022/06/28 07:12:11;;;;;;;11.60;4.43;;;17.40;99.90;;;;;;4946049;28;20402;-84
2022/06/28 07:14:36;;;;;;;9.55;4.45;;;17.60;99.90;;;;;;4945773;28;20065;-84
2022/06/28 07:17:02;;;;;;;10.57;5.25;;;17.70;99.90;;;;;;4936962;28;20050;-84
2022/06/28 07:19:28;;;;;;;9.57;4.50;;;17.80;99.90;;;;;;4943974;28;20045;-84
2022/06/28 07:21:54;;;;;;;9.65;5.10;;;17.60;99.90;;;;;;4941304;28;20034;-84
2022/06/28 07:24:19;;;;;;;11.40;3.60;;;17.80;99.90;;;;;;4953863;28;20214;-84
2022/06/28 07:26:45;;;;;;;9.10;3.53;;;17.40;99.90;;;;;;4958045;28;20133;-84
2022/06/28 07:29:12;;;;;;;8.18;3.35;;;17.50;99.90;;;;;;4944632;28;20050;-84
2022/06/28 07:31:37;;;;;;;7.20;3.70;;;17.60;99.90;;;;;;4946521;28;20045;-84
2022/06/28 07:34:03;;;;;;;11.50;3.70;;;17.90;99.90;;;;;;4943083;28;20038;-84
2022/06/28 07:36:29;;;;;;;8.73;3.42;;;18.30;99.90;;;;;;4961131;28;20546;-84
2022/06/28 07:38:55;;;;;;;11.02;3.85;;;18.30;99.90;;;;;;4940775;28;20357;-84
2022/06/28 07:41:24;;;;;;;8.30;3.30;;;18.30;99.90;;;;;;4942376;28;20492;-84
2022/06/28 07:43:51;;;;;;;8.35;3.33;;;18.20;99.90;;;;;;4953207;28;20035;-85
2022/06/28 07:46:18;;;;;;;10.27;3.60;;;18.30;99.90;;;;;;4942410;28;20051;-84
2022/06/28 07:48:53;;;;;;;9.10;3.28;;;18.50;99.90;;;;;;4941329;28;20078;-84
2022/06/28 07:54:03;;;;;;;6.22;2.28;;;19.00;99.90;;;;;;4953206;28;20528;-84
2022/06/28 07:56:29;;;;;;;7.13;2.20;;;19.10;99.90;;;;;;4954863;28;20039;-84
2022/06/28 07:58:55;;;;;;;6.18;2.72;;;18.90;99.90;;;;;;4952847;28;20069;-84
2022/06/28 08:01:21;;;;;;;6.63;2.20;;;18.70;99.90;;;;;;4933834;28;20035;-84
2022/06/28 08:03:47;;;;;;;8.65;2.55;;;19.20;99.90;;;;;;4943234;28;20533;-84
2022/06/28 08:06:13;;;;;;;6.90;2.53;;;19.50;99.90;;;;;;4956586;28;20204;-83
2022/06/28 08:08:39;;;;;;;7.47;2.63;;;19.80;99.90;;;;;;4941580;28;20039;-83
2022/06/28 08:11:05;;;;;;;11.50;2.90;;;19.90;99.90;;;;;;4939250;28;20097;-84
2022/06/28 08:13:31;;;;;;;8.63;2.25;;;20.10;71.40;;;;;;4941428;28;20042;-84
2022/06/28 08:15:58;;;;;;;5.70;1.90;;;20.20;99.90;;;;;;4936656;28;20474;-84
2022/06/28 08:18:24;;;;;;;8.43;1.83;;;19.90;1.00;;;;;;4940286;28;20121;-84
2022/06/28 08:20:49;;;;;;;7.07;1.65;;;19.60;92.80;;;;;;4942180;28;20126;-84
2022/06/28 08:23:15;;;;;;;5.60;1.67;;;20.00;22.30;;;;;;4940637;28;20557;-84
2022/06/28 08:25:43;;;;;;;7.03;2.10;;;20.10;28.50;;;;;;4942138;28;20043;-83
2022/06/28 08:28:11;;;;;;;6.38;1.90;;;19.90;83.80;;;;;;4941335;28;20429;-83
2022/06/28 08:30:37;;;;;;;6.55;2.17;;;20.00;39.70;;;;;;4940380;28;20058;-84
2022/06/28 08:33:03;;;;;;;5.45;1.80;;;20.00;21.20;;;;;;4942670;28;20410;-84
2022/06/28 08:35:29;;;;;;;8.68;1.70;;;20.30;1.00;;;;;;4956794;28;20676;-83
2022/06/28 08:37:55;;;;;;;5.97;1.80;;;20.30;1.00;;;;;;4956293;28;20542;-84
2022/06/28 08:40:25;;;;;;;7.25;2.08;;;20.60;17.20;;;;;;4936417;28;20121;-83
2022/06/28 08:42:53;;;;;;;5.32;2.00;;;20.30;1.00;;;;;;4939519;28;20070;-83
2022/06/28 08:45:21;;;;;;;9.77;2.05;;;20.10;1.00;;;;;;4942660;28;20113;-84
2022/06/28 08:47:51;;;;;;;6.32;2.08;;;19.90;99.90;;;;;;4955661;28;20522;-83
2022/06/28 08:50:39;;;;;;;8.35;2.00;;;20.40;55.60;;;;;;4939433;28;20047;-83
2022/06/28 08:53:07;;;;;;;9.32;2.13;;;20.60;21.00;;;;;;4941396;28;20045;-83
2022/06/28 08:55:35;;;;;;;8.85;1.98;;;21.10;1.00;;;;;;4939991;28;20062;-83
2022/06/28 08:58:04;;;;;;;7.25;2.00;;;21.20;1.00;;;;;;4940283;28;20225;-84
2022/06/28 09:00:29;;;;;;;8.85;2.03;;;20.70;1.00;;;;;;4955947;28;20336;-84
2022/06/28 09:02:55;;;;;;;6.22;1.75;;;20.60;1.00;;;;;;4939848;28;20116;-84
2022/06/28 09:05:22;;;;;;;5.50;1.75;;;20.60;1.00;;;;;;4959326;28;20438;-84
2022/06/28 09:07:50;;;;;;;4.70;1.70;;;20.60;1.00;;;;;;4943569;28;20307;-83
2022/06/28 09:10:19;;;;;;;8.07;2.10;;;20.80;1.00;;;;;;4946872;28;20041;-84
2022/06/28 09:12:54;;;;;;;10.65;1.73;;;20.70;1.00;;;;;;4959030;28;20042;-84
2022/06/28 09:15:24;;;;;;;7.07;2.08;;;20.50;1.00;;;;;;4944012;28;20047;-84
2022/06/28 09:17:55;;;;;;;7.05;2.25;;;20.40;1.00;;;;;;4953940;28;20546;-84
2022/06/28 09:20:34;;;;;;;7.85;1.70;;;20.80;1.00;;;;;;4944352;28;20282;-84
2022/06/28 09:23:00;;;;;;;5.18;1.60;;;21.10;99.90;;;;;;4950446;28;20322;-84
2022/06/28 09:25:29;;;;;;;7.57;1.90;;;21.30;99.90;;;;;;4930749;28;20092;-84
2022/06/28 09:27:57;;;;;;;7.10;1.92;;;21.70;99.90;;;;;;4937513;28;20462;-84
2022/06/28 09:30:26;;;;;;;6.75;1.70;;;21.80;1.00;;;;;;4958325;28;20332;-84
2022/06/28 09:32:52;;;;;;;5.95;1.63;;;22.20;99.90;;;;;;4953475;28;20035;-84
2022/06/28 09:35:18;;;;;;;8.27;1.80;;;22.60;99.90;;;;;;4959042;28;20049;-83
2022/06/28 09:37:50;;;;;;;5.80;1.75;;;22.50;99.90;;;;;;4954492;28;20039;-84
2022/06/28 09:40:20;;;;;;;7.25;2.50;;;22.30;99.90;;;;;;4958105;28;20122;-84
2022/06/28 09:43:04;;;;;;;8.00;2.20;;;21.80;99.90;;;;;;4949659;28;20474;-83
2022/06/28 09:45:30;;;;;;;4.40;2.13;;;21.70;99.90;;;;;;4949780;28;20530;-84
2022/06/28 09:47:56;;;;;;;5.03;1.83;;;22.20;99.90;;;;;;4940932;28;20062;-83
2022/06/28 09:50:25;;;;;;;8.07;1.77;;;22.30;99.90;;;;;;4961542;28;20422;-83
2022/06/28 09:52:52;;;;;;;7.20;1.98;;;22.30;99.90;;;;;;4959471;28;20035;-84
2022/06/28 09:55:19;;;;;;;7.28;3.38;;;22.10;99.90;;;;;;4940989;28;20067;-84
2022/06/28 09:57:47;;;;;;;4.68;1.70;;;21.60;99.90;;;;;;4959390;28;20054;-83
2022/06/28 10:00:16;;;;;;;7.55;2.05;;;21.00;99.90;;;;;;4959500;28;20129;-84
2022/06/28 10:02:42;;;;;;;7.07;1.90;;;21.00;1.00;;;;;;4943413;28;20147;-84
2022/06/28 10:05:17;;;;;;;6.35;2.15;;;21.20;1.00;;;;;;4943857;28;20118;-84
2022/06/28 10:07:44;;;;;;;7.03;1.80;;;21.00;99.90;;;;;;4950024;28;20486;-84
2022/06/28 10:10:13;;;;;;;5.68;1.67;;;20.80;99.90;;;;;;4946504;28;20065;-84
2022/06/28 10:15:25;;;;;;;;;;;20.30;99.90;;;;;;4950383;28;20334;-84
2022/06/28 10:18:12;;;;;;;4.28;1.50;;;20.30;99.90;;;;;;4949458;28;19930;-84
2022/06/28 10:20:40;;;;;;;6.30;1.67;;;19.90;99.90;;;;;;4957034;28;20070;-84
2022/06/28 10:23:38;;;;;;;7.03;2.08;;;19.90;1.00;;;;;;4935108;28;20120;-84
2022/06/28 10:26:18;;;;;;;8.25;1.90;;;19.60;99.90;;;;;;4933203;28;20042;-84
2022/06/28 10:28:47;;;;;;;8.35;1.80;;;19.80;1.00;;;;;;4956336;28;20039;-84
2022/06/28 10:31:24;;;;;;;4.80;1.80;;;20.50;99.90;;;;;;4956119;28;20066;-84
2022/06/28 10:33:51;;;;;;;8.35;2.05;;;20.90;99.90;;;;;;4938808;28;20049;-84
2022/06/28 10:36:19;;;;;;;5.10;1.70;;;20.50;99.90;;;;;;4940582;28;20049;-84
2022/06/28 10:39:07;;;;;;;4.72;1.45;;;20.40;99.90;;;;;;4942962;28;20077;-84
2022/06/28 10:41:45;;;;;;;8.38;1.90;;;20.30;99.90;;;;;;4931884;28;20435;-84
2022/06/28 10:44:14;;;;;;;7.45;1.90;;;20.30;99.90;;;;;;4941086;28;20043;-84
2022/06/28 10:46:47;;;;;;;6.63;2.00;;;20.80;99.90;;;;;;4941444;28;20704;-85
2022/06/28 10:49:17;;;;;;;5.53;1.77;;;21.40;99.90;;;;;;4939289;28;20061;-85
2022/06/28 10:52:10;;;;;;;4.20;1.60;;;22.10;99.90;;;;;;4958622;28;20043;-85
2022/06/28 10:54:37;;;;;;;8.00;2.00;;;22.50;99.90;;;;;;4957790;28;20248;-84
2022/06/28 10:57:33;;;;;;;6.07;1.85;;;21.80;99.90;;;;;;4967783;28;20057;-84
2022/06/28 11:00:00;;;;;;;;;;;22.10;99.90;;;;;;4942500;28;20026;-85
2022/06/28 11:02:45;;;;;;;7.30;2.10;;;21.70;99.90;;;;;;4937368;28;20009;-85
2022/06/28 11:05:10;;;;;;;4.95;1.92;;;21.50;99.90;;;;;;4968712;28;20062;-85
2022/06/28 11:07:40;;;;;;;6.40;1.83;;;21.70;99.90;;;;;;4947532;28;20751;-84
2022/06/28 11:10:11;;;;;;;5.30;1.70;;;22.30;99.90;;;;;;4951834;28;20231;-85
2022/06/28 11:12:40;;;;;;;6.88;1.92;;;23.10;99.90;;;;;;4942171;28;20038;-85
2022/06/28 11:15:25;;;;;;;4.55;1.60;;;23.30;99.90;;;;;;4970218;28;20035;-85
2022/06/28 11:17:51;;;;;;;6.43;1.70;;;23.30;99.90;;;;;;4936663;28;20207;-85
2022/06/28 11:20:23;;;;;;;4.57;1.50;;;23.20;99.90;;;;;;4955132;28;20136;-84
2022/06/28 11:22:50;;;;;;;3.50;1.48;;;23.70;99.90;;;;;;4938082;28;20043;-85
2022/06/28 11:25:21;;;;;;;6.63;1.40;;;24.00;99.90;;;;;;4954165;28;20042;-84
2022/06/28 11:27:49;;;;;;;6.50;1.40;;;23.00;99.90;;;;;;4954243;28;20046;-84
2022/06/28 11:30:15;;;;;;;4.60;1.52;;;22.40;99.90;;;;;;4942198;28;20053;-84
2022/06/28 11:32:43;;;;;;;4.85;1.38;;;22.10;99.90;;;;;;4943733;28;20907;-85
2022/06/28 11:35:34;;;;;;;4.43;1.42;;;22.60;99.90;;;;;;4938748;28;20319;-85
2022/06/28 11:38:12;;;;;;;2.47;1.30;;;22.30;99.90;;;;;;4949648;28;20039;-85
2022/06/28 11:40:47;;;;;;;5.28;1.67;;;22.00;99.90;;;;;;4944485;28;20051;-84
2022/06/28 11:43:18;;;;;;;;;;;23.20;99.90;;;;;;4957606;28;20110;-85
2022/06/28 11:45:46;;;;;;;3.75;1.60;;;24.00;99.90;;;;;;4949527;28;20193;-85
2022/06/28 11:48:31;;;;;;;3.78;1.33;;;24.10;99.90;;;;;;4943123;28;20085;-84
2022/06/28 11:50:59;;;;;;;5.40;1.52;;;24.20;99.90;;;;;;4941417;28;20042;-84
2022/06/28 11:53:27;;;;;;;5.63;1.33;;;23.80;99.90;;;;;;4971281;28;20122;-85
2022/06/28 11:55:57;;;;;;;3.20;1.40;;;23.10;99.90;;;;;;4947220;28;20063;-84
2022/06/28 11:58:29;;;;;;;6.03;1.40;;;22.50;99.90;;;;;;4943669;28;20049;-85
2022/06/28 12:01:08;;;;;;;5.32;1.77;;;22.80;99.90;;;;;;4963229;28;20046;-84
2022/06/28 12:03:56;;;;;;;7.47;2.03;;;23.60;99.90;;;;;;4942325;28;20118;-85
2022/06/28 12:06:29;;;;;;;5.25;1.60;;;23.90;99.90;;;;;;4942112;28;20065;-85
2022/06/28 12:09:01;;;;;;;6.07;1.45;;;24.60;99.90;;;;;;4945627;28;20141;-85
2022/06/28 12:11:44;;;;;;;5.82;1.25;;;24.40;99.90;;;;;;4942462;28;20114;-84
2022/06/28 12:14:19;;;;;;;7.30;1.63;;;24.10;99.90;;;;;;4941351;28;20077;-85
2022/06/28 12:16:55;;;;;;;6.43;1.60;;;24.20;99.90;;;;;;4941519;28;20074;-85
2022/06/28 12:19:32;;;;;;;4.47;1.48;;;24.20;99.90;;;;;;4948776;28;20090;-85
2022/06/28 12:22:13;;;;;;;3.50;1.40;;;24.80;99.90;;;;;;4942092;28;20038;-85
2022/06/28 12:24:45;;;;;;;3.40;1.40;;;25.00;99.90;;;;;;4940546;28;20105;-84
2022/06/28 12:27:18;;;;;;;5.28;1.58;;;25.40;99.90;;;;;;4956526;28;20438;-85
2022/06/28 12:29:44;;;;;;;2.53;1.20;;;25.10;99.90;;;;;;4942688;28;20038;-85
2022/06/28 12:32:11;;;;;;;3.35;1.20;;;25.80;99.90;;;;;;4952052;28;20282;-85
2022/06/28 12:34:39;;;;;;;4.38;1.30;;;25.30;99.90;;;;;;4957841;28;20661;-85
2022/06/28 12:37:09;;;;;;;3.63;1.27;;;25.50;99.90;;;;;;4941191;28;20399;-85
2022/06/28 12:39:35;;;;;;;8.10;1.58;;;24.60;99.90;;;;;;4942497;28;20109;-85
2022/06/28 12:42:01;;;;;;;5.18;1.52;;;25.30;99.90;;;;;;4942599;28;20047;-85
2022/06/28 12:44:27;;;;;;;3.60;1.20;;;24.70;99.90;;;;;;4941301;28;20165;-85
2022/06/28 12:46:53;;;;;;;4.75;1.13;;;25.10;99.90;;;;;;4941186;28;20185;-85
2022/06/28 12:49:22;;;;;;;6.93;1.48;;;25.50;99.90;;;;;;4942149;28;20098;-85
2022/06/28 12:51:49;;;;;;;4.57;1.38;;;25.70;99.90;;;;;;4942240;28;20039;-85
2022/06/28 12:54:15;;;;;;;4.53;1.38;;;25.70;99.90;;;;;;4942093;28;20047;-85
2022/06/28 12:56:41;;;;;;;3.30;1.20;;;25.60;99.90;;;;;;4951550;28;20411;-85